Time;durP1;ratioP1;P1;durP2;ratioP2;P2;SDS_P1;SDS_P2;PMS_P1;PMS_P2;Temp;Humidity;BMP_temperature;BMP_pressure;BME280_temperature;BME280_humidity;BME280_pressure;Samples;Min_cycle;Max_cycle;Signal;HPM_P1;HPM_P2
2023/05/20 00:00:14;;;;;;;;;;;11.60;99.90;;;;;;4999431;28;19974;-88
2023/05/20 00:02:40;;;;;;;;;;;10.90;99.90;;;;;;5030059;28;19976;-89
2023/05/20 00:05:23;;;;;;;;;;;11.10;99.90;;;;;;5043445;28;20412;-87
2023/05/20 00:07:49;;;;;;;;;;;10.80;99.90;;;;;;5064103;28;20323;-88
2023/05/20 00:10:17;;;;;;;;;;;10.90;99.90;;;;;;5016015;28;19925;-87
2023/05/20 00:12:43;;;;;;;;;;;11.10;99.90;;;;;;5012663;28;19933;-87
2023/05/20 00:15:19;;;;;;;;;;;11.20;99.90;;;;;;5045275;28;19925;-87
2023/05/20 00:17:53;;;;;;;;;;;11.10;99.90;;;;;;5040000;28;19926;-90
2023/05/20 00:20:19;;;;;;;;;;;10.80;99.90;;;;;;5032773;28;19925;-91
2023/05/20 00:22:44;;;;;;;;;;;11.00;99.90;;;;;;5015856;28;19932;-87
2023/05/20 00:25:13;;;;;;;;;;;10.80;99.90;;;;;;5032373;28;19929;-87
2023/05/20 00:27:39;;;;;;;;;;;12.30;99.90;;;;;;5032442;28;20277;-88
2023/05/20 00:30:21;;;;;;;;;;;10.70;99.90;;;;;;5012648;28;19984;-87
2023/05/20 00:32:49;;;;;;;;;;;10.90;99.90;;;;;;5031736;28;20027;-87
2023/05/20 00:35:25;;;;;;;;;;;10.30;99.90;;;;;;5014329;28;19931;-90
2023/05/20 00:37:53;;;;;;;;;;;10.80;99.90;;;;;;5016028;28;19925;-90
2023/05/20 00:40:20;;;;;;;;;;;10.60;99.90;;;;;;5016571;28;19925;-90
2023/05/20 00:42:49;;;;;;;;;;;8.90;99.90;;;;;;5006010;28;19925;-87
2023/05/20 00:45:14;;;;;;;;;;;10.90;99.90;;;;;;5015193;28;19929;-87
2023/05/20 00:47:43;;;;;;;;;;;10.60;99.90;;;;;;5023668;28;20380;-87
2023/05/20 00:50:09;;;;;;;;;;;10.50;99.90;;;;;;5031980;28;19925;-87
2023/05/20 00:52:44;;;;;;;;;;;10.40;99.90;;;;;;5015997;28;19948;-87
2023/05/20 00:55:09;;;;;;;;;;;10.50;99.90;;;;;;4996466;28;19932;-90
2023/05/20 00:57:35;;;;;;;;;;;10.90;99.90;;;;;;5019854;28;19926;-90
2023/05/20 01:00:06;;;;;;;;;;;10.80;99.90;;;;;;5015460;28;20428;-90
2023/05/20 01:02:34;;;;;;;;;;;10.50;99.90;;;;;;5017691;28;19925;-90
2023/05/20 01:05:02;;;;;;;;;;;10.70;99.90;;;;;;5016017;28;19925;-89
2023/05/20 01:07:28;;;;;;;;;;;10.50;99.90;;;;;;5001691;28;19932;-90
2023/05/20 01:09:56;;;;;;;;;;;10.50;99.90;;;;;;5018310;28;20376;-89
2023/05/20 01:12:29;;;;;;;;;;;10.50;99.90;;;;;;5019916;28;19933;-90
2023/05/20 01:15:00;;;;;;;;;;;10.70;99.90;;;;;;5033793;28;19972;-89
2023/05/20 01:17:29;;;;;;;;;;;10.60;99.90;;;;;;5019024;28;19925;-89
2023/05/20 01:19:58;;;;;;;;;;;10.90;99.90;;;;;;5019359;28;20379;-88
2023/05/20 01:22:25;;;;;;;;;;;10.70;99.90;;;;;;5036963;28;20027;-87
2023/05/20 01:24:54;;;;;;;;;;;10.70;99.90;;;;;;5011274;28;19931;-87
2023/05/20 01:27:21;;;;;;;;;;;10.50;99.90;;;;;;5014238;28;20409;-88
2023/05/20 01:29:49;;;;;;;;;;;10.30;99.90;;;;;;5018708;28;19968;-87
2023/05/20 01:32:19;;;;;;;;;;;10.90;99.90;;;;;;5049254;28;19925;-87
2023/05/20 01:34:48;;;;;;;;;;;10.40;99.90;;;;;;5029500;28;19929;-88
2023/05/20 01:37:14;;;;;;;;;;;10.40;99.90;;;;;;5028726;28;20381;-87
2023/05/20 01:39:45;;;;;;;;;;;10.30;99.90;;;;;;5020947;28;20460;-88
2023/05/20 01:42:20;;;;;;;;;;;10.30;99.90;;;;;;5025156;28;19991;-88
2023/05/20 01:44:50;;;;;;;;;;;10.60;99.90;;;;;;5020297;28;19932;-89
2023/05/20 01:47:15;;;;;;;;;;;10.40;99.90;;;;;;5015557;28;20419;-88
2023/05/20 01:49:41;;;;;;;;;;;11.10;99.90;;;;;;5036395;28;19929;-87
2023/05/20 01:52:09;;;;;;;;;;;10.30;99.90;;;;;;5011609;28;20018;-87
2023/05/20 01:54:35;;;;;;;;;;;10.30;99.90;;;;;;5028197;28;19948;-88
2023/05/20 01:57:01;;;;;;;;;;;10.50;99.90;;;;;;5027632;28;19926;-88
2023/05/20 01:59:27;;;;;;;;;;;10.50;99.90;;;;;;5032752;28;19925;-88
2023/05/20 02:01:55;;;;;;;;;;;10.40;99.90;;;;;;5018885;28;19932;-88
2023/05/20 02:04:21;;;;;;;;;;;8.20;99.90;;;;;;5017779;28;19925;-88
2023/05/20 02:06:47;;;;;;;;;;;10.20;99.90;;;;;;5003044;28;19925;-88
2023/05/20 02:09:13;;;;;;;;;;;10.90;99.90;;;;;;5015259;28;19925;-88
2023/05/20 02:11:39;;;;;;;;;;;10.20;99.90;;;;;;5010720;28;19925;-88
2023/05/20 02:14:05;;;;;;;;;;;10.40;99.90;;;;;;5012211;28;19925;-88
2023/05/20 02:16:30;;;;;;;;;;;10.60;99.90;;;;;;5022930;28;19933;-89
2023/05/20 02:18:58;;;;;;;;;;;10.20;99.90;;;;;;5015318;28;20439;-89
2023/05/20 02:21:30;;;;;;;;;;;10.50;99.90;;;;;;5012339;28;19929;-88
2023/05/20 02:24:00;;;;;;;;;;;10.10;99.90;;;;;;5013158;28;19925;-88
2023/05/20 02:26:27;;;;;;;;;;;10.50;99.90;;;;;;5021774;28;20373;-88
2023/05/20 02:28:53;;;;;;;;;;;10.80;99.90;;;;;;5014167;28;19926;-88
2023/05/20 02:31:21;;;;;;;;;;;9.70;99.90;;;;;;5017592;28;19926;-89
2023/05/20 02:33:47;;;;;;;;;;;10.50;99.90;;;;;;5051319;28;19925;-88
2023/05/20 02:36:12;;;;;;;;;;;10.00;99.90;;;;;;5017196;28;19925;-88
2023/05/20 02:38:38;;;;;;;;;;;10.20;99.90;;;;;;5018153;28;19925;-88
2023/05/20 02:41:08;;;;;;;;;;;10.10;99.90;;;;;;5033420;28;19929;-88
2023/05/20 02:43:35;;;;;;;;;;;10.00;99.90;;;;;;5031585;28;20438;-88
2023/05/20 02:46:01;;;;;;;;;;;10.20;99.90;;;;;;5011882;28;19929;-89
2023/05/20 02:48:27;;;;;;;;;;;9.90;99.90;;;;;;4997287;28;19931;-89
2023/05/20 02:50:53;;;;;;;;;;;10.00;99.90;;;;;;5019547;28;19925;-87
2023/05/20 02:53:18;;;;;;;;;;;10.50;99.90;;;;;;5027610;28;19931;-88
2023/05/20 02:55:49;;;;;;;;;;;8.60;99.90;;;;;;5007710;28;20093;-88
2023/05/20 02:58:16;;;;;;;;;;;9.70;99.90;;;;;;5017995;28;20300;-88
2023/05/20 03:00:45;;;;;;;;;;;10.20;99.90;;;;;;5014084;28;19983;-88
2023/05/20 03:03:12;;;;;;;;;;;10.00;99.90;;;;;;5013484;28;19926;-88
2023/05/20 03:05:38;;;;;;;;;;;10.00;99.90;;;;;;5033638;28;20403;-88
2023/05/20 03:08:08;;;;;;;;;;;9.90;99.90;;;;;;5033905;28;19929;-88
2023/05/20 03:10:34;;;;;;;;;;;9.90;99.90;;;;;;5013972;28;19936;-88
2023/05/20 03:13:07;;;;;;;;;;;9.90;99.90;;;;;;5030703;28;19929;-88
2023/05/20 03:15:36;;;;;;;;;;;9.80;99.90;;;;;;5013822;28;19925;-89
2023/05/20 03:18:07;;;;;;;;;;;10.00;99.90;;;;;;5016876;28;20020;-88
2023/05/20 03:20:38;;;;;;;;;;;10.50;99.90;;;;;;5015801;28;20250;-87
2023/05/20 03:23:07;;;;;;;;;;;8.50;99.90;;;;;;5013189;28;19937;-88
2023/05/20 03:25:36;;;;;;;;;;;9.80;99.90;;;;;;5016066;28;19926;-89
2023/05/20 03:28:05;;;;;;;;;;;9.80;99.90;;;;;;5021127;28;19987;-89
2023/05/20 03:30:31;;;;;;;;;;;10.00;99.90;;;;;;5015753;28;20364;-88
2023/05/20 03:32:57;;;;;;;;;;;12.50;99.90;;;;;;5017034;28;20063;-89
2023/05/20 03:35:27;;;;;;;;;;;9.70;99.90;;;;;;5016751;28;19933;-88
2023/05/20 03:37:53;;;;;;;;;;;10.40;99.90;;;;;;5032823;28;19932;-88
2023/05/20 03:40:22;;;;;;;;;;;10.00;99.90;;;;;;4999991;28;20312;-88
2023/05/20 03:42:50;;;;;;;;;;;9.20;99.90;;;;;;5033466;28;20388;-88
2023/05/20 03:45:19;;;;;;;;;;;12.30;99.90;;;;;;5016047;28;19932;-88
2023/05/20 03:47:44;;;;;;;;;;;9.70;99.90;;;;;;5036923;28;19951;-88
2023/05/20 03:50:10;;;;;;;;;;;9.70;99.90;;;;;;5038520;28;20004;-88
2023/05/20 03:52:38;;;;;;;;;;;9.70;99.90;;;;;;5015370;28;19933;-88
2023/05/20 03:55:04;;;;;;;;;;;9.60;99.90;;;;;;5016227;28;19929;-88
2023/05/20 03:57:32;;;;;;;;;;;10.40;99.90;;;;;;5016123;28;19932;-88
2023/05/20 04:00:01;;;;;;;;;;;9.90;99.90;;;;;;5014912;28;19925;-88
2023/05/20 04:02:27;;;;;;;;;;;9.90;99.90;;;;;;5015169;28;20008;-88
2023/05/20 04:04:56;;;;;;;;;;;9.80;99.90;;;;;;5016605;28;19965;-88
2023/05/20 04:07:22;;;;;;;;;;;9.80;99.90;;;;;;5016522;28;20365;-89
2023/05/20 04:09:51;;;;;;;;;;;9.90;99.90;;;;;;5026777;28;19925;-88
2023/05/20 04:12:18;;;;;;;;;;;10.30;99.90;;;;;;5015898;28;20023;-88
2023/05/20 04:14:43;;;;;;;;;;;10.00;99.90;;;;;;5013203;28;20115;-88
2023/05/20 04:17:09;;;;;;;;;;;10.50;99.90;;;;;;5006847;28;20335;-88
2023/05/20 04:19:43;;;;;;;;;;;10.00;99.90;;;;;;5009243;28;19925;-89
2023/05/20 04:22:09;;;;;;;;;;;10.20;99.90;;;;;;5031187;28;19931;-89
2023/05/20 04:24:36;;;;;;;;;;;10.10;99.90;;;;;;5035223;28;20011;-89
2023/05/20 04:27:02;;;;;;;;;;;10.60;99.90;;;;;;5017699;28;19925;-88
2023/05/20 04:29:33;;;;;;;;;;;8.70;99.90;;;;;;5019222;28;19932;-88
2023/05/20 04:32:03;;;;;;;;;;;10.20;99.90;;;;;;5035953;28;19932;-88
2023/05/20 04:34:28;;;;;;;;;;;10.50;99.90;;;;;;5003154;28;19924;-88
2023/05/20 04:36:56;;;;;;;;;;;10.40;99.90;;;;;;5035248;28;19928;-88
2023/05/20 04:39:25;;;;;;;;;;;10.30;99.90;;;;;;5038638;28;19932;-88
2023/05/20 04:41:53;;;;;;;;;;;10.30;99.90;;;;;;5003804;28;19932;-88
2023/05/20 04:44:19;;;;;;;;;;;10.30;99.90;;;;;;5015628;28;19956;-88
2023/05/20 04:46:47;;;;;;;;;;;10.60;99.90;;;;;;5023335;28;19971;-88
2023/05/20 04:49:14;;;;;;;;;;;10.50;99.90;;;;;;5022564;28;19983;-88
2023/05/20 04:51:40;;;;;;;;;;;10.60;99.90;;;;;;5038339;28;19925;-88
2023/05/20 04:54:06;;;;;;;;;;;10.40;99.90;;;;;;5022660;28;20033;-88
2023/05/20 04:56:32;;;;;;;;;;;11.20;99.90;;;;;;5022938;28;19925;-88
2023/05/20 04:58:58;;;;;;;;;;;11.40;99.90;;;;;;5011920;28;19925;-89
2023/05/20 05:01:23;;;;;;;;;;;9.20;99.90;;;;;;5020277;28;19933;-88
2023/05/20 05:03:49;;;;;;;;;;;10.70;99.90;;;;;;5034910;28;20351;-88
2023/05/20 05:06:15;;;;;;;;;;;10.80;99.90;;;;;;5038688;28;20279;-89
2023/05/20 05:08:46;;;;;;;;;;;11.30;99.90;;;;;;5051314;28;19936;-89
2023/05/20 05:11:11;;;;;;;;;;;11.40;99.90;;;;;;5006640;28;19974;-89
2023/05/20 05:13:37;;;;;;;;;;;10.80;99.90;;;;;;5005838;28;20332;-87
2023/05/20 05:16:10;;;;;;;;;;;10.80;99.90;;;;;;5055553;28;19925;-88
2023/05/20 05:18:36;;;;;;;;;;;10.80;99.90;;;;;;5055010;28;19947;-87
2023/05/20 05:21:02;;;;;;;;;;;11.20;99.90;;;;;;5018527;28;19948;-90
2023/05/20 05:23:28;;;;;;;;;;;11.00;99.90;;;;;;5030953;28;20296;-88
2023/05/20 05:26:01;;;;;;;;;;;11.00;99.90;;;;;;5014989;28;19929;-88
2023/05/20 05:28:27;;;;;;;;;;;9.20;99.90;;;;;;5048044;28;20347;-88
2023/05/20 05:30:58;;;;;;;;;;;11.30;99.90;;;;;;5017826;28;20021;-88
2023/05/20 05:33:26;;;;;;;;;;;11.20;99.90;;;;;;5015721;28;19933;-87
2023/05/20 05:35:57;;;;;;;;;;;11.40;99.90;;;;;;5018940;28;19925;-88
2023/05/20 05:38:23;;;;;;;;;;;11.60;99.90;;;;;;4990312;28;19965;-88
2023/05/20 05:40:49;;;;;;;;;;;11.90;99.90;;;;;;5034536;28;20428;-87
2023/05/20 05:43:15;;;;;;;;;;;11.90;99.90;;;;;;5033735;28;20012;-89
2023/05/20 05:45:42;;;;;;;;;;;11.80;99.90;;;;;;5018512;28;19925;-89
2023/05/20 05:48:07;;;;;;;;;;;12.00;99.90;;;;;;5018504;28;20030;-88
2023/05/20 05:50:38;;;;;;;;;;;10.20;99.90;;;;;;5017063;28;19977;-89
2023/05/20 05:53:04;;;;;;;;;;;12.40;99.90;;;;;;5018230;28;19933;-88
2023/05/20 05:55:30;;;;;;;;;;;12.30;99.90;;;;;;5019533;28;19932;-88
2023/05/20 05:57:56;;;;;;;;;;;12.70;99.90;;;;;;5039008;28;19925;-88
2023/05/20 06:00:29;;;;;;;;;;;12.50;99.90;;;;;;5021294;28;19929;-88
2023/05/20 06:02:55;;;;;;;;;;;12.70;99.90;;;;;;5017178;28;19925;-88
2023/05/20 06:05:21;;;;;;;;;;;12.40;99.90;;;;;;5020026;28;19978;-89
2023/05/20 06:07:54;;;;;;;;;;;11.00;99.90;;;;;;5022970;28;19974;-88
2023/05/20 06:10:22;;;;;;;;;;;12.50;99.90;;;;;;5033576;28;19925;-89
2023/05/20 06:12:50;;;;;;;;;;;12.70;99.90;;;;;;5032032;28;19929;-87
2023/05/20 06:15:16;;;;;;;;;;;12.90;99.90;;;;;;5033474;28;19932;-87
2023/05/20 06:17:42;;;;;;;;;;;12.50;99.90;;;;;;5025084;28;19925;-89
2023/05/20 06:20:10;;;;;;;;;;;12.60;99.90;;;;;;5014537;28;20035;-88
2023/05/20 06:22:35;;;;;;;;;;;12.80;99.90;;;;;;5014665;28;19926;-88
2023/05/20 06:25:01;;;;;;;;;;;12.60;99.90;;;;;;5028646;28;20397;-88
2023/05/20 06:27:27;;;;;;;;;;;12.70;99.90;;;;;;5017878;28;19925;-88
2023/05/20 06:29:53;;;;;;;;;;;12.80;99.90;;;;;;5014593;28;19932;-88
2023/05/20 06:32:21;;;;;;;;;;;12.70;99.90;;;;;;5017685;28;19925;-88
2023/05/20 06:34:47;;;;;;;;;;;10.60;99.90;;;;;;5016465;28;19982;-88
2023/05/20 06:37:13;;;;;;;;;;;10.40;99.90;;;;;;5033655;28;19971;-87
2023/05/20 06:39:38;;;;;;;;;;;13.00;99.90;;;;;;5018079;28;19936;-89
2023/05/20 06:42:07;;;;;;;;;;;13.20;99.90;;;;;;5033819;28;20421;-89
2023/05/20 06:44:32;;;;;;;;;;;12.90;99.90;;;;;;5017255;28;20016;-89
2023/05/20 06:47:00;;;;;;;;;;;13.00;99.90;;;;;;5017466;28;19975;-88
2023/05/20 06:49:34;;;;;;;;;;;13.00;99.90;;;;;;5013227;28;19931;-90
2023/05/20 06:52:00;;;;;;;;;;;13.20;99.90;;;;;;5034516;28;19933;-88
2023/05/20 06:54:28;;;;;;;;;;;13.00;99.90;;;;;;5015329;28;19933;-89
2023/05/20 06:56:54;;;;;;;;;;;13.60;99.90;;;;;;5017855;28;19976;-88
2023/05/20 06:59:19;;;;;;;;;;;14.10;99.90;;;;;;5033352;28;19972;-88
2023/05/20 07:01:48;;;;;;;;;;;13.30;99.90;;;;;;5015514;28;19925;-89
2023/05/20 07:04:16;;;;;;;;;;;12.50;99.90;;;;;;5010569;28;20463;-89
2023/05/20 07:06:42;;;;;;;;;;;13.80;99.90;;;;;;5029850;28;19929;-87
2023/05/20 07:09:08;;;;;;;;;;;13.20;99.90;;;;;;5027909;28;19925;-88
2023/05/20 07:11:36;;;;;;;;;;;13.90;99.90;;;;;;5000902;28;20262;-88
2023/05/20 07:14:04;;;;;;;;;;;13.50;99.90;;;;;;5016431;28;19925;-88
2023/05/20 07:16:45;;;;;;;;;;;14.20;99.90;;;;;;5013065;28;19973;-89
2023/05/20 07:19:11;;;;;;;;;;;13.10;99.90;;;;;;5024965;28;19935;-88
2023/05/20 07:21:37;;;;;;;;;;;13.30;99.90;;;;;;5016194;28;19933;-88
2023/05/20 07:24:18;;;;;;;;;;;13.30;99.90;;;;;;5017112;28;20013;-90
2023/05/20 07:26:49;;;;;;;;;;;13.30;99.90;;;;;;5001782;28;19929;-89
2023/05/20 07:29:20;;;;;;;;;;;13.50;99.90;;;;;;4978212;28;20381;-89
2023/05/20 07:31:57;;;;;;;;;;;11.90;99.90;;;;;;5012791;28;19932;-89
2023/05/20 07:34:22;;;;;;;;;;;13.60;99.90;;;;;;4982094;28;19965;-88
2023/05/20 07:36:50;;;;;;;;;;;13.50;99.90;;;;;;4980778;28;19969;-89
2023/05/20 07:39:18;;;;;;;;;;;14.10;99.90;;;;;;5011656;28;19932;-90
2023/05/20 07:41:44;;;;;;;;;;;13.90;99.90;;;;;;4992912;28;19953;-88
2023/05/20 07:44:12;;;;;;;;;;;13.70;99.90;;;;;;5012519;28;19925;-89
2023/05/20 07:46:40;;;;;;;;;;;13.70;99.90;;;;;;4986091;28;19953;-88
2023/05/20 07:49:09;;;;;;;;;;;14.10;99.90;;;;;;5012385;28;19952;-89
2023/05/20 07:51:35;;;;;;;;;;;13.90;99.90;;;;;;5007307;28;19960;-90
2023/05/20 07:54:03;;;;;;;;;;;15.00;99.90;;;;;;5024560;28;20016;-89
2023/05/20 07:56:31;;;;;;;;;;;13.90;99.90;;;;;;5021250;28;20028;-91
2023/05/20 07:59:02;;;;;;;;;;;14.20;99.90;;;;;;4985100;28;19968;-91
2023/05/20 08:01:27;;;;;;;;;;;12.80;99.90;;;;;;5004551;28;20397;-88
2023/05/20 08:03:53;;;;;;;;;;;14.20;99.90;;;;;;4987311;28;19925;-89
2023/05/20 08:06:23;;;;;;;;;;;14.30;99.90;;;;;;4993080;28;19933;-89
2023/05/20 08:08:54;;;;;;;;;;;14.10;99.90;;;;;;5021806;28;19931;-90
2023/05/20 08:11:21;;;;;;;;;;;14.40;99.90;;;;;;4996680;28;19932;-90
2023/05/20 08:13:47;;;;;;;;;;;14.20;99.90;;;;;;5008604;28;19991;-88
2023/05/20 08:16:18;;;;;;;;;;;14.60;99.90;;;;;;5002242;28;19926;-90
2023/05/20 08:18:57;;;;;;;;;;;14.60;99.90;;;;;;4985589;28;19961;-87
2023/05/20 08:21:23;;;;;;;;;;;14.60;99.90;;;;;;5016261;28;19926;-89
2023/05/20 08:23:49;;;;;;;;;;;14.80;99.90;;;;;;5007984;28;20442;-86
2023/05/20 08:26:14;;;;;;;;;;;14.50;99.90;;;;;;5005962;28;19929;-86
2023/05/20 08:28:40;;;;;;;;;;;14.60;99.90;;;;;;5030165;28;19933;-85
2023/05/20 08:31:06;;;;;;;;;;;16.30;99.90;;;;;;4993784;28;19940;-86
2023/05/20 08:33:31;;;;;;;;;;;15.00;99.90;;;;;;5015862;28;20034;-87
2023/05/20 08:35:59;;;;;;;;;;;15.20;99.90;;;;;;5014706;28;19932;-89
2023/05/20 08:38:25;;;;;;;;;;;15.10;99.90;;;;;;5059401;28;19929;-89
2023/05/20 08:40:52;;;;;;;;;;;15.10;99.90;;;;;;5031629;28;19925;-88
2023/05/20 08:43:20;;;;;;;;;;;15.10;99.90;;;;;;5014809;28;19925;-88
2023/05/20 08:45:46;;;;;;;;;;;15.90;99.90;;;;;;5014506;28;19939;-89
2023/05/20 08:48:11;;;;;;;;;;;15.20;99.90;;;;;;5048379;28;19929;-89
2023/05/20 08:50:38;;;;;;;;;;;15.50;99.90;;;;;;5013970;28;19932;-88
2023/05/20 08:53:03;;;;;;;;;;;15.30;99.90;;;;;;5006499;28;20024;-89
2023/05/20 08:55:44;;;;;;;;;;;15.30;99.90;;;;;;5039945;28;20012;-90
2023/05/20 08:58:12;;;;;;;;;;;15.60;99.90;;;;;;5031776;28;19960;-89
2023/05/20 09:00:40;;;;;;;;;;;15.50;99.90;;;;;;4999042;28;19925;-89
2023/05/20 09:03:06;;;;;;;;;;;15.70;99.90;;;;;;5051519;28;19972;-87
2023/05/20 09:05:32;;;;;;;;;;;15.70;99.90;;;;;;5014167;28;19926;-88
2023/05/20 09:08:08;;;;;;;;;;;16.30;99.90;;;;;;5012335;28;19965;-86
2023/05/20 09:10:35;;;;;;;;;;;15.80;99.90;;;;;;5060033;28;19983;-85
2023/05/20 09:13:03;;;;;;;;;;;15.90;99.90;;;;;;5032319;28;19925;-86
2023/05/20 09:15:29;;;;;;;;;;;15.90;99.90;;;;;;5044295;28;19925;-86
2023/05/20 09:17:58;;;;;;;;;;;16.00;99.90;;;;;;5031359;28;19925;-88
2023/05/20 09:20:24;;;;;;;;;;;16.10;99.90;;;;;;5010350;28;19969;-86
2023/05/20 09:22:52;;;;;;;;;;;16.30;99.90;;;;;;5041196;28;19983;-87
2023/05/20 09:25:19;;;;;;;;;;;16.30;99.90;;;;;;5053928;28;19929;-85
2023/05/20 09:27:44;;;;;;;;;;;16.30;99.90;;;;;;5039106;28;19932;-87
2023/05/20 09:30:11;;;;;;;;;;;16.40;99.90;;;;;;5021923;28;20011;-87
2023/05/20 09:32:37;;;;;;;;;;;16.50;99.90;;;;;;5019186;28;20292;-88
2023/05/20 09:35:05;;;;;;;;;;;16.60;99.90;;;;;;5034610;28;19971;-87
2023/05/20 09:37:33;;;;;;;;;;;16.70;99.90;;;;;;5021711;28;19924;-87
2023/05/20 09:40:08;;;;;;;;;;;16.80;99.90;;;;;;5035858;28;19935;-87
2023/05/20 09:42:39;;;;;;;;;;;16.80;99.90;;;;;;5053560;28;19935;-87
2023/05/20 09:45:05;;;;;;;;;;;16.70;99.90;;;;;;5021826;28;20019;-87
2023/05/20 09:47:31;;;;;;;;;;;17.20;99.90;;;;;;5019496;28;19995;-86
2023/05/20 09:49:57;;;;;;;;;;;16.90;99.90;;;;;;5021971;28;19929;-87
2023/05/20 09:52:23;;;;;;;;;;;17.10;99.90;;;;;;5004084;28;20600;-87
2023/05/20 09:54:49;;;;;;;;;;;17.10;99.90;;;;;;5049530;28;20019;-86
2023/05/20 09:57:15;;;;;;;;;;;17.20;99.90;;;;;;5018428;28;19925;-87
2023/05/20 09:59:41;;;;;;;;;;;17.20;99.90;;;;;;5061316;28;20015;-87
2023/05/20 10:02:07;;;;;;;;;;;17.40;99.90;;;;;;5022075;28;20288;-87
2023/05/20 10:04:34;;;;;;;;;;;17.50;99.90;;;;;;5018148;28;19931;-87
2023/05/20 10:07:19;;;;;;;;;;;17.70;99.90;;;;;;5052631;28;19933;-86
2023/05/20 10:10:11;;;;;;;;;;;17.70;98.70;;;;;;5010662;28;20400;-87
2023/05/20 10:12:46;;;;;;;;;;;17.70;98.20;;;;;;5028239;28;20062;-87
2023/05/20 10:15:11;;;;;;;;;;;17.80;99.10;;;;;;5020365;28;19928;-87
2023/05/20 10:17:56;;;;;;;;;;;17.90;97.60;;;;;;5020747;28;19925;-87
2023/05/20 10:20:21;;;;;;;;;;;17.90;97.20;;;;;;5026760;28;20014;-88
2023/05/20 10:22:57;;;;;;;;;;;17.80;98.50;;;;;;5014105;28;19967;-86
2023/05/20 10:25:25;;;;;;;;;;;18.00;98.50;;;;;;5019444;28;20018;-87
2023/05/20 10:27:51;;;;;;;;;;;18.10;98.50;;;;;;5050736;28;19932;-86
2023/05/20 10:30:17;;;;;;;;;;;18.80;97.70;;;;;;5054051;28;19925;-87
2023/05/20 10:32:59;;;;;;;;;;;18.40;97.20;;;;;;5017452;28;19932;-86
2023/05/20 10:35:25;;;;;;;;;;;18.40;96.40;;;;;;5033682;28;19925;-87
2023/05/20 10:37:51;;;;;;;;;;;18.40;96.20;;;;;;5013689;28;19925;-86
2023/05/20 10:40:18;;;;;;;;;;;18.50;96.20;;;;;;5017422;28;19932;-87
2023/05/20 10:42:47;;;;;;;;;;;18.50;96.50;;;;;;5016470;28;20330;-88
2023/05/20 10:45:26;;;;;;;;;;;20.30;96.20;;;;;;5036629;28;19931;-88
2023/05/20 10:47:55;;;;;;;;;;;18.70;95.30;;;;;;5032156;28;19925;-87
2023/05/20 10:50:26;;;;;;;;;;;18.70;95.10;;;;;;5037014;28;19924;-87
2023/05/20 10:52:52;;;;;;;;;;;18.90;93.90;;;;;;5017025;28;19925;-86
2023/05/20 10:55:18;;;;;;;;;;;18.80;94.80;;;;;;5036581;28;19932;-86
2023/05/20 10:57:44;;;;;;;;;;;18.80;95.20;;;;;;5020047;28;20363;-86
2023/05/20 11:00:11;;;;;;;;;;;18.80;94.60;;;;;;5031184;28;19925;-86
2023/05/20 11:02:37;;;;;;;;;;;18.80;93.80;;;;;;5033822;28;19951;-87
2023/05/20 11:05:03;;;;;;;;;;;18.60;94.90;;;;;;5020223;28;19975;-86
2023/05/20 11:07:29;;;;;;;;;;;18.60;93.80;;;;;;5020438;28;19931;-86
2023/05/20 11:09:55;;;;;;;;;;;18.50;94.50;;;;;;5004212;28;20501;-86
2023/05/20 11:12:22;;;;;;;;;;;18.50;95.10;;;;;;5017572;28;19925;-88
2023/05/20 11:14:48;;;;;;;;;;;19.80;95.70;;;;;;5015186;28;19978;-86
2023/05/20 11:17:15;;;;;;;;;;;18.90;93.60;;;;;;5023961;28;19936;-87
2023/05/20 11:19:40;;;;;;;;;;;19.00;94.00;;;;;;5051842;28;19948;-88
2023/05/20 11:22:07;;;;;;;;;;;19.00;94.00;;;;;;5030044;28;20360;-87
2023/05/20 11:24:32;;;;;;;;;;;19.10;93.10;;;;;;5036380;28;19932;-88
2023/05/20 11:26:59;;;;;;;;;;;19.20;91.90;;;;;;5032784;28;19925;-87
2023/05/20 11:29:25;;;;;;;;;;;19.40;92.00;;;;;;5018194;28;20010;-88
2023/05/20 11:31:51;;;;;;;;;;;19.20;92.00;;;;;;5020317;28;20006;-87
2023/05/20 11:34:24;;;;;;;;;;;19.20;93.10;;;;;;5016821;28;19925;-87
2023/05/20 11:36:56;;;;;;;;;;;19.30;93.70;;;;;;5019647;28;19925;-87
2023/05/20 11:39:21;;;;;;;;;;;19.40;92.20;;;;;;5020021;28;19924;-87
2023/05/20 11:41:47;;;;;;;;;;;19.40;92.80;;;;;;5005556;28;19925;-88
2023/05/20 11:44:13;;;;;;;;;;;19.50;92.50;;;;;;5037747;28;19986;-87
2023/05/20 11:46:42;;;;;;;;;;;19.80;93.20;;;;;;5016286;28;19924;-87
2023/05/20 11:49:08;;;;;;;;;;;19.90;95.70;;;;;;5050320;28;20376;-87
2023/05/20 11:51:34;;;;;;;;;;;19.90;93.10;;;;;;5035938;28;19978;-88
2023/05/20 11:54:03;;;;;;;;;;;19.80;92.40;;;;;;5017405;28;19925;-88
2023/05/20 11:56:40;;;;;;;;;;;19.80;93.00;;;;;;5010767;28;19925;-88
2023/05/20 11:59:07;;;;;;;;;;;20.00;91.30;;;;;;5029151;28;19925;-87
2023/05/20 12:01:42;;;;;;;;;;;20.00;91.20;;;;;;5036135;28;19924;-87
2023/05/20 12:04:08;;;;;;;;;;;20.30;94.80;;;;;;5016169;28;19925;-87
2023/05/20 12:06:34;;;;;;;;;;;20.10;96.10;;;;;;5041775;28;19971;-86
2023/05/20 12:09:07;;;;;;;;;;;19.70;97.10;;;;;;5020030;28;19951;-88
2023/05/20 12:11:34;;;;;;;;;;;19.50;98.60;;;;;;5019983;28;19925;-88
2023/05/20 12:14:00;;;;;;;;;;;19.60;99.30;;;;;;5011177;28;19940;-85
2023/05/20 12:16:25;;;;;;;;;;;19.70;98.30;;;;;;5024077;28;19929;-86
2023/05/20 12:18:51;;;;;;;;;;;19.60;99.20;;;;;;5075872;28;20281;-89
2023/05/20 12:21:19;;;;;;;;;;;19.40;99.90;;;;;;5001921;28;20081;-87
2023/05/20 12:23:45;;;;;;;;;;;19.10;99.90;;;;;;5019534;28;20403;-86
2023/05/20 12:26:10;;;;;;;;;;;19.00;99.90;;;;;;5024937;28;19925;-87
2023/05/20 12:28:36;;;;;;;;;;;19.00;99.90;;;;;;5014821;28;20011;-85
2023/05/20 12:31:01;;;;;;;;;;;18.90;99.90;;;;;;5031530;28;19924;-87
2023/05/20 12:33:27;;;;;;;;;;;18.80;99.90;;;;;;5002768;28;20008;-87
2023/05/20 12:35:52;;;;;;;;;;;18.90;99.90;;;;;;5015598;28;20311;-87
2023/05/20 12:38:19;;;;;;;;;;;19.00;99.90;;;;;;5048838;28;19933;-88
2023/05/20 12:40:44;;;;;;;;;;;19.00;99.90;;;;;;5000142;28;19929;-86
2023/05/20 12:43:10;;;;;;;;;;;19.00;99.90;;;;;;5025933;28;19925;-87
2023/05/20 12:45:36;;;;;;;;;;;19.10;99.90;;;;;;5031772;28;19952;-87
2023/05/20 12:48:04;;;;;;;;;;;19.30;99.90;;;;;;4998309;28;19926;-88
2023/05/20 12:50:30;;;;;;;;;;;19.40;99.90;;;;;;5024182;28;19925;-86
2023/05/20 12:52:55;;;;;;;;;;;19.50;99.90;;;;;;5002022;28;19951;-87
2023/05/20 12:55:21;;;;;;;;;;;19.60;99.90;;;;;;5019390;28;19925;-87
2023/05/20 12:57:47;;;;;;;;;;;19.30;99.90;;;;;;5015360;28;19979;-87
2023/05/20 13:00:13;;;;;;;;;;;19.30;99.90;;;;;;5034404;28;20372;-87
2023/05/20 13:02:39;;;;;;;;;;;19.30;99.90;;;;;;5028374;28;19925;-88
2023/05/20 13:05:05;;;;;;;;;;;19.30;99.90;;;;;;5038900;28;19925;-86
2023/05/20 13:07:31;;;;;;;;;;;19.20;99.90;;;;;;5039215;28;19932;-86
2023/05/20 13:10:00;;;;;;;;;;;19.30;99.90;;;;;;5025104;28;19925;-88
2023/05/20 13:12:26;;;;;;;;;;;19.40;99.90;;;;;;5004311;28;19925;-87
2023/05/20 13:14:51;;;;;;;;;;;19.50;99.90;;;;;;5067246;28;19925;-87
2023/05/20 13:17:17;;;;;;;;;;;19.70;99.90;;;;;;5038833;28;19970;-87
2023/05/20 13:19:44;;;;;;;;;;;20.00;99.90;;;;;;5034392;28;19931;-88
2023/05/20 13:22:10;;;;;;;;;;;20.20;99.50;;;;;;5022291;28;20349;-88
2023/05/20 13:24:38;;;;;;;;;;;20.10;98.80;;;;;;5055711;28;19976;-88
2023/05/20 13:27:04;;;;;;;;;;;20.00;99.10;;;;;;5022225;28;19928;-87
2023/05/20 13:29:30;;;;;;;;;;;19.70;99.40;;;;;;5005684;28;20035;-87
2023/05/20 13:31:55;;;;;;;;;;;19.50;99.90;;;;;;5036124;28;19924;-87
2023/05/20 13:34:21;;;;;;;;;;;19.60;99.40;;;;;;5021739;28;19978;-90
2023/05/20 13:36:47;;;;;;;;;;;19.60;99.80;;;;;;5021886;28;20011;-87
2023/05/20 13:39:15;;;;;;;;;;;19.70;99.60;;;;;;5038851;28;19931;-88
2023/05/20 13:41:41;;;;;;;;;;;19.70;99.90;;;;;;5006180;28;20365;-89
2023/05/20 13:44:07;;;;;;;;;;;19.60;99.90;;;;;;5018826;28;19939;-87
2023/05/20 13:46:34;;;;;;;;;;;19.70;99.90;;;;;;5043457;28;19932;-87
2023/05/20 13:49:00;;;;;;;;;;;19.80;99.80;;;;;;5018322;28;20384;-86
2023/05/20 13:51:25;;;;;;;;;;;19.70;98.60;;;;;;5005426;28;19929;-88
2023/05/20 13:53:51;;;;;;;;;;;19.50;99.70;;;;;;5009243;28;19932;-88
2023/05/20 13:56:17;;;;;;;;;;;19.50;99.90;;;;;;5056620;28;19977;-88
2023/05/20 13:58:42;;;;;;;;;;;19.80;99.90;;;;;;5020856;28;19929;-90
2023/05/20 14:01:11;;;;;;;;;;;20.00;99.90;;;;;;5047593;28;19924;-88
2023/05/20 14:03:38;;;;;;;;;;;20.20;98.60;;;;;;5018090;28;20327;-87
2023/05/20 14:06:04;;;;;;;;;;;20.00;98.70;;;;;;5022014;28;20355;-87
2023/05/20 14:08:30;;;;;;;;;;;19.80;99.20;;;;;;5021879;28;19925;-88
2023/05/20 14:10:55;;;;;;;;;;;19.50;99.60;;;;;;5021203;28;19925;-87
2023/05/20 14:13:21;;;;;;;;;;;19.50;99.90;;;;;;5071418;28;20337;-88
2023/05/20 14:15:49;;;;;;;;;;;19.40;99.90;;;;;;5020840;28;19924;-87
2023/05/20 14:18:15;;;;;;;;;;;19.30;99.90;;;;;;5012927;28;19978;-88
2023/05/20 14:20:41;;;;;;;;;;;19.30;99.90;;;;;;5017031;28;19932;-88